sensor_id;sensor_type;location;lat;lon;timestamp;pressure;altitude;pressure_sealevel;temperature;humidity
3444;BME280;1736;52.068;6.968;2023-07-20T00:02:23;101065.47;;;16.91;90.40
3444;BME280;1736;52.068;6.968;2023-07-20T00:04:50;101054.97;;;16.98;90.40
3444;BME280;1736;52.068;6.968;2023-07-20T00:07:16;101052.13;;;16.99;90.33
3444;BME280;1736;52.068;6.968;2023-07-20T00:09:43;101067.00;;;16.94;90.30
3444;BME280;1736;52.068;6.968;2023-07-20T00:12:09;101073.53;;;16.91;90.81
3444;BME280;1736;52.068;6.968;2023-07-20T00:14:37;101063.41;;;16.85;91.26
3444;BME280;1736;52.068;6.968;2023-07-20T00:17:04;101061.75;;;16.84;91.61
3444;BME280;1736;52.068;6.968;2023-07-20T00:19:31;101060.69;;;16.77;92.01
3444;BME280;1736;52.068;6.968;2023-07-20T00:21:58;101056.66;;;16.73;92.36
3444;BME280;1736;52.068;6.968;2023-07-20T00:24:25;101062.00;;;16.73;92.67
3444;BME280;1736;52.068;6.968;2023-07-20T00:26:51;101054.47;;;16.69;92.85
3444;BME280;1736;52.068;6.968;2023-07-20T00:29:18;101046.56;;;16.67;93.22
3444;BME280;1736;52.068;6.968;2023-07-20T00:31:46;101052.59;;;16.69;93.82
3444;BME280;1736;52.068;6.968;2023-07-20T00:34:12;101056.28;;;16.68;94.11
3444;BME280;1736;52.068;6.968;2023-07-20T00:36:39;101045.72;;;16.67;94.67
3444;BME280;1736;52.068;6.968;2023-07-20T00:39:06;101045.56;;;16.68;94.88
3444;BME280;1736;52.068;6.968;2023-07-20T00:41:33;101055.28;;;16.69;94.97
3444;BME280;1736;52.068;6.968;2023-07-20T00:44:00;101052.59;;;16.69;95.25
3444;BME280;1736;52.068;6.968;2023-07-20T00:46:26;101058.34;;;16.74;95.47
3444;BME280;1736;52.068;6.968;2023-07-20T00:48:55;101056.34;;;16.76;95.45
3444;BME280;1736;52.068;6.968;2023-07-20T00:51:23;101057.03;;;16.78;95.27
3444;BME280;1736;52.068;6.968;2023-07-20T00:53:50;101070.44;;;16.78;95.30
3444;BME280;1736;52.068;6.968;2023-07-20T00:56:17;101068.72;;;16.77;95.28
3444;BME280;1736;52.068;6.968;2023-07-20T00:58:44;101065.34;;;16.67;95.13
3444;BME280;1736;52.068;6.968;2023-07-20T01:01:10;101071.75;;;16.74;95.75
3444;BME280;1736;52.068;6.968;2023-07-20T01:03:37;101088.34;;;16.52;97.42
3444;BME280;1736;52.068;6.968;2023-07-20T01:06:12;101278.69;;;16.06;100.00
3444;BME280;1736;52.068;6.968;2023-07-20T01:08:46;101050.75;;;15.84;100.00
3444;BME280;1736;52.068;6.968;2023-07-20T01:11:21;101051.34;;;15.60;100.00
3444;BME280;1736;52.068;6.968;2023-07-20T01:13:50;101069.91;;;15.44;100.00
3444;BME280;1736;52.068;6.968;2023-07-20T01:16:17;101076.00;;;15.27;100.00
3444;BME280;1736;52.068;6.968;2023-07-20T01:18:43;101095.88;;;15.15;100.00
3444;BME280;1736;52.068;6.968;2023-07-20T01:21:15;101113.06;;;15.12;100.00
3444;BME280;1736;52.068;6.968;2023-07-20T01:27:00;101142.06;;;15.07;100.00
3444;BME280;1736;52.068;6.968;2023-07-20T01:29:52;101160.13;;;14.96;100.00
3444;BME280;1736;52.068;6.968;2023-07-20T01:32:23;101166.16;;;14.98;100.00
3444;BME280;1736;52.068;6.968;2023-07-20T01:34:52;101180.38;;;14.98;100.00
3444;BME280;1736;52.068;6.968;2023-07-20T01:37:20;101186.84;;;14.96;100.00
3444;BME280;1736;52.068;6.968;2023-07-20T01:39:52;101189.94;;;14.91;100.00
3444;BME280;1736;52.068;6.968;2023-07-20T01:42:21;101199.38;;;14.86;100.00
3444;BME280;1736;52.068;6.968;2023-07-20T01:44:50;101206.25;;;14.88;100.00
3444;BME280;1736;52.068;6.968;2023-07-20T01:47:17;101210.25;;;14.75;100.00
3444;BME280;1736;52.068;6.968;2023-07-20T01:49:45;101224.56;;;14.74;100.00
3444;BME280;1736;52.068;6.968;2023-07-20T01:52:12;101240.59;;;14.74;100.00
3444;BME280;1736;52.068;6.968;2023-07-20T01:54:38;101253.25;;;14.81;100.00
3444;BME280;1736;52.068;6.968;2023-07-20T01:57:05;101261.69;;;14.77;100.00
3444;BME280;1736;52.068;6.968;2023-07-20T01:59:31;101277.44;;;14.89;100.00
3444;BME280;1736;52.068;6.968;2023-07-20T02:01:58;101290.22;;;14.86;100.00
3444;BME280;1736;52.068;6.968;2023-07-20T02:04:25;101298.81;;;14.80;100.00
3444;BME280;1736;52.068;6.968;2023-07-20T02:06:52;101297.97;;;14.79;100.00
3444;BME280;1736;52.068;6.968;2023-07-20T02:09:19;101308.09;;;14.76;100.00
3444;BME280;1736;52.068;6.968;2023-07-20T02:11:46;101317.66;;;14.78;100.00
3444;BME280;1736;52.068;6.968;2023-07-20T02:14:13;101321.88;;;14.81;100.00
3444;BME280;1736;52.068;6.968;2023-07-20T02:16:39;101325.41;;;14.81;100.00
3444;BME280;1736;52.068;6.968;2023-07-20T02:19:06;101333.28;;;14.83;100.00
3444;BME280;1736;52.068;6.968;2023-07-20T02:21:33;101351.00;;;14.84;100.00
3444;BME280;1736;52.068;6.968;2023-07-20T02:24:01;101357.88;;;14.77;100.00
3444;BME280;1736;52.068;6.968;2023-07-20T02:26:27;101368.41;;;14.78;100.00
3444;BME280;1736;52.068;6.968;2023-07-20T02:28:54;101370.22;;;14.78;100.00
3444;BME280;1736;52.068;6.968;2023-07-20T02:31:21;101380.13;;;14.87;100.00
3444;BME280;1736;52.068;6.968;2023-07-20T02:33:47;101382.78;;;14.77;100.00
3444;BME280;1736;52.068;6.968;2023-07-20T02:36:14;101390.09;;;14.85;100.00
3444;BME280;1736;52.068;6.968;2023-07-20T02:38:42;101398.66;;;14.79;100.00
3444;BME280;1736;52.068;6.968;2023-07-20T02:41:10;101392.34;;;14.80;100.00
3444;BME280;1736;52.068;6.968;2023-07-20T02:46:58;101386.84;;;14.72;100.00
3444;BME280;1736;52.068;6.968;2023-07-20T02:49:24;101389.06;;;14.57;100.00
3444;BME280;1736;52.068;6.968;2023-07-20T02:51:51;101396.22;;;14.57;100.00
3444;BME280;1736;52.068;6.968;2023-07-20T02:54:17;101397.06;;;14.57;100.00
3444;BME280;1736;52.068;6.968;2023-07-20T02:56:45;101392.56;;;14.48;100.00
3444;BME280;1736;52.068;6.968;2023-07-20T02:59:12;101399.28;;;14.43;100.00
3444;BME280;1736;52.068;6.968;2023-07-20T03:01:38;101406.97;;;14.36;100.00
3444;BME280;1736;52.068;6.968;2023-07-20T03:04:07;101419.34;;;14.37;100.00
3444;BME280;1736;52.068;6.968;2023-07-20T03:06:35;101419.47;;;14.36;100.00
3444;BME280;1736;52.068;6.968;2023-07-20T03:09:01;101426.78;;;14.34;100.00
3444;BME280;1736;52.068;6.968;2023-07-20T03:11:29;101434.75;;;14.24;100.00
3444;BME280;1736;52.068;6.968;2023-07-20T03:13:57;101433.91;;;14.24;100.00
3444;BME280;1736;52.068;6.968;2023-07-20T03:16:24;101442.47;;;14.27;100.00
3444;BME280;1736;52.068;6.968;2023-07-20T03:18:51;101446.13;;;14.26;100.00
3444;BME280;1736;52.068;6.968;2023-07-20T03:21:18;101456.69;;;14.28;100.00
3444;BME280;1736;52.068;6.968;2023-07-20T03:23:44;101451.59;;;14.25;100.00
3444;BME280;1736;52.068;6.968;2023-07-20T03:26:11;101459.59;;;14.25;100.00
3444;BME280;1736;52.068;6.968;2023-07-20T03:28:38;101466.13;;;14.32;100.00
3444;BME280;1736;52.068;6.968;2023-07-20T03:31:06;101472.88;;;14.36;100.00
3444;BME280;1736;52.068;6.968;2023-07-20T03:33:33;101484.41;;;14.36;100.00
3444;BME280;1736;52.068;6.968;2023-07-20T03:36:00;101489.88;;;14.35;100.00
3444;BME280;1736;52.068;6.968;2023-07-20T03:38:27;101494.69;;;14.41;100.00
3444;BME280;1736;52.068;6.968;2023-07-20T03:40:55;101488.63;;;14.39;100.00
3444;BME280;1736;52.068;6.968;2023-07-20T03:43:22;101493.00;;;14.40;100.00
3444;BME280;1736;52.068;6.968;2023-07-20T03:45:48;101500.47;;;14.46;100.00
3444;BME280;1736;52.068;6.968;2023-07-20T03:48:17;101511.88;;;14.48;100.00
3444;BME280;1736;52.068;6.968;2023-07-20T03:50:44;101503.59;;;14.51;100.00
3444;BME280;1736;52.068;6.968;2023-07-20T03:53:11;101521.88;;;14.55;100.00
3444;BME280;1736;52.068;6.968;2023-07-20T03:55:38;101528.66;;;14.59;100.00
3444;BME280;1736;52.068;6.968;2023-07-20T03:58:05;101533.84;;;14.61;100.00
3444;BME280;1736;52.068;6.968;2023-07-20T04:00:32;101529.75;;;14.57;100.00
3444;BME280;1736;52.068;6.968;2023-07-20T04:02:58;101571.94;;;14.53;100.00
3444;BME280;1736;52.068;6.968;2023-07-20T04:05:26;101569.50;;;14.50;100.00
3444;BME280;1736;52.068;6.968;2023-07-20T04:07:53;101572.31;;;14.49;100.00
3444;BME280;1736;52.068;6.968;2023-07-20T04:10:19;101572.38;;;14.58;100.00
3444;BME280;1736;52.068;6.968;2023-07-20T04:12:46;101581.50;;;14.56;100.00
3444;BME280;1736;52.068;6.968;2023-07-20T04:15:13;101586.59;;;14.59;100.00
3444;BME280;1736;52.068;6.968;2023-07-20T04:17:40;101588.53;;;14.57;100.00
3444;BME280;1736;52.068;6.968;2023-07-20T04:20:07;101581.38;;;14.57;100.00
3444;BME280;1736;52.068;6.968;2023-07-20T04:22:36;101582.47;;;14.55;100.00
3444;BME280;1736;52.068;6.968;2023-07-20T04:25:03;101610.16;;;14.54;100.00
3444;BME280;1736;52.068;6.968;2023-07-20T04:27:29;101602.53;;;14.49;100.00
3444;BME280;1736;52.068;6.968;2023-07-20T04:29:57;101628.84;;;14.54;100.00
3444;BME280;1736;52.068;6.968;2023-07-20T04:32:24;101612.25;;;14.50;100.00
3444;BME280;1736;52.068;6.968;2023-07-20T04:34:51;101616.47;;;14.53;100.00
3444;BME280;1736;52.068;6.968;2023-07-20T04:37:17;101619.81;;;14.45;100.00
3444;BME280;1736;52.068;6.968;2023-07-20T04:39:45;101625.22;;;14.55;100.00
3444;BME280;1736;52.068;6.968;2023-07-20T04:42:12;101597.72;;;14.64;100.00
3444;BME280;1736;52.068;6.968;2023-07-20T04:44:39;101610.09;;;14.65;100.00
3444;BME280;1736;52.068;6.968;2023-07-20T04:47:06;101583.97;;;14.68;100.00
3444;BME280;1736;52.068;6.968;2023-07-20T04:49:33;101577.72;;;14.58;100.00
3444;BME280;1736;52.068;6.968;2023-07-20T04:52:00;101585.06;;;14.66;100.00
3444;BME280;1736;52.068;6.968;2023-07-20T04:54:28;101584.75;;;14.59;100.00
3444;BME280;1736;52.068;6.968;2023-07-20T04:56:55;101585.16;;;14.55;100.00
3444;BME280;1736;52.068;6.968;2023-07-20T04:59:22;101582.53;;;14.64;100.00
3444;BME280;1736;52.068;6.968;2023-07-20T05:01:49;101591.00;;;14.69;100.00
3444;BME280;1736;52.068;6.968;2023-07-20T05:04:15;101582.84;;;14.71;100.00
3444;BME280;1736;52.068;6.968;2023-07-20T05:06:42;101586.78;;;14.76;100.00
3444;BME280;1736;52.068;6.968;2023-07-20T05:09:09;101581.31;;;14.78;100.00
3444;BME280;1736;52.068;6.968;2023-07-20T05:11:35;101581.31;;;14.78;100.00
3444;BME280;1736;52.068;6.968;2023-07-20T05:14:03;101586.84;;;14.86;100.00
3444;BME280;1736;52.068;6.968;2023-07-20T05:16:30;101584.91;;;14.88;100.00
3444;BME280;1736;52.068;6.968;2023-07-20T05:18:56;101592.06;;;14.87;100.00
3444;BME280;1736;52.068;6.968;2023-07-20T05:21:23;101585.22;;;14.94;100.00
3444;BME280;1736;52.068;6.968;2023-07-20T05:23:50;101590.59;;;15.04;100.00
3444;BME280;1736;52.068;6.968;2023-07-20T05:26:16;101596.41;;;15.18;100.00
3444;BME280;1736;52.068;6.968;2023-07-20T05:28:43;101607.94;;;15.09;100.00
3444;BME280;1736;52.068;6.968;2023-07-20T05:31:13;101598.81;;;15.21;100.00
3444;BME280;1736;52.068;6.968;2023-07-20T05:33:40;101602.19;;;15.23;100.00
3444;BME280;1736;52.068;6.968;2023-07-20T05:36:06;101599.38;;;15.25;100.00
3444;BME280;1736;52.068;6.968;2023-07-20T05:38:33;101599.53;;;15.23;100.00
3444;BME280;1736;52.068;6.968;2023-07-20T05:41:00;101608.09;;;15.27;100.00
3444;BME280;1736;52.068;6.968;2023-07-20T05:43:29;101610.97;;;15.35;100.00
3444;BME280;1736;52.068;6.968;2023-07-20T05:45:55;101603.06;;;15.24;100.00
3444;BME280;1736;52.068;6.968;2023-07-20T05:48:23;101611.59;;;15.58;100.00
3444;BME280;1736;52.068;6.968;2023-07-20T05:50:50;101621.47;;;15.76;100.00
3444;BME280;1736;52.068;6.968;2023-07-20T05:53:16;101618.97;;;16.03;100.00
3444;BME280;1736;52.068;6.968;2023-07-20T05:55:43;101627.56;;;16.35;100.00
3444;BME280;1736;52.068;6.968;2023-07-20T05:58:10;101636.59;;;16.63;100.00
3444;BME280;1736;52.068;6.968;2023-07-20T06:00:36;101635.84;;;16.80;96.49
3444;BME280;1736;52.068;6.968;2023-07-20T06:03:03;101627.41;;;17.11;93.17
3444;BME280;1736;52.068;6.968;2023-07-20T06:05:31;101634.78;;;17.46;92.66
3444;BME280;1736;52.068;6.968;2023-07-20T06:07:57;101624.75;;;17.65;90.65
3444;BME280;1736;52.068;6.968;2023-07-20T06:10:25;101628.09;;;17.94;89.25
3444;BME280;1736;52.068;6.968;2023-07-20T06:12:52;101630.47;;;18.15;89.32
3444;BME280;1736;52.068;6.968;2023-07-20T06:15:27;101626.16;;;18.39;86.63
3444;BME280;1736;52.068;6.968;2023-07-20T06:17:54;101628.75;;;18.66;84.62
3444;BME280;1736;52.068;6.968;2023-07-20T06:20:23;101630.41;;;18.67;83.25
3444;BME280;1736;52.068;6.968;2023-07-20T06:22:51;101616.91;;;18.59;84.25
3444;BME280;1736;52.068;6.968;2023-07-20T06:25:18;101636.59;;;18.60;82.43
3444;BME280;1736;52.068;6.968;2023-07-20T06:27:45;101615.91;;;18.35;81.25
3444;BME280;1736;52.068;6.968;2023-07-20T06:30:12;101620.72;;;18.14;81.62
3444;BME280;1736;52.068;6.968;2023-07-20T06:32:39;101618.50;;;18.09;82.55
3444;BME280;1736;52.068;6.968;2023-07-20T06:35:06;101621.19;;;18.09;81.86
3444;BME280;1736;52.068;6.968;2023-07-20T06:37:33;101613.34;;;17.98;81.20
3444;BME280;1736;52.068;6.968;2023-07-20T06:40:02;101618.84;;;17.79;82.70
3444;BME280;1736;52.068;6.968;2023-07-20T06:42:29;101752.03;;;17.72;84.62
3444;BME280;1736;52.068;6.968;2023-07-20T06:44:56;101675.81;;;18.18;84.06
3444;BME280;1736;52.068;6.968;2023-07-20T06:47:23;101649.59;;;18.29;80.54
3444;BME280;1736;52.068;6.968;2023-07-20T06:49:49;101634.91;;;18.24;79.75
3444;BME280;1736;52.068;6.968;2023-07-20T06:52:16;101636.94;;;18.39;79.88
3444;BME280;1736;52.068;6.968;2023-07-20T06:54:42;101634.59;;;18.44;80.52
3444;BME280;1736;52.068;6.968;2023-07-20T06:57:10;101622.34;;;18.24;80.97
3444;BME280;1736;52.068;6.968;2023-07-20T06:59:37;101636.63;;;18.85;79.73
3444;BME280;1736;52.068;6.968;2023-07-20T07:02:04;101623.16;;;18.85;77.79
3444;BME280;1736;52.068;6.968;2023-07-20T07:04:31;101613.13;;;18.70;78.00
3444;BME280;1736;52.068;6.968;2023-07-20T07:06:59;101630.25;;;19.20;78.84
3444;BME280;1736;52.068;6.968;2023-07-20T07:09:25;101618.59;;;19.11;76.72
3444;BME280;1736;52.068;6.968;2023-07-20T07:11:52;101617.88;;;19.09;74.99
3444;BME280;1736;52.068;6.968;2023-07-20T07:14:20;101604.75;;;18.47;78.95
3444;BME280;1736;52.068;6.968;2023-07-20T07:16:47;101612.41;;;18.60;75.95
3444;BME280;1736;52.068;6.968;2023-07-20T07:19:13;101607.34;;;18.22;76.43
3444;BME280;1736;52.068;6.968;2023-07-20T07:21:40;101643.91;;;17.97;79.13
3444;BME280;1736;52.068;6.968;2023-07-20T07:24:06;101606.13;;;17.64;80.77
3444;BME280;1736;52.068;6.968;2023-07-20T07:26:35;101605.19;;;17.73;79.39
3444;BME280;1736;52.068;6.968;2023-07-20T07:29:02;101612.41;;;18.07;78.17
3444;BME280;1736;52.068;6.968;2023-07-20T07:31:30;101608.88;;;18.42;78.56
3444;BME280;1736;52.068;6.968;2023-07-20T07:33:56;101599.13;;;18.84;75.54
3444;BME280;1736;52.068;6.968;2023-07-20T07:36:23;101619.75;;;19.34;72.65
3444;BME280;1736;52.068;6.968;2023-07-20T07:38:50;101624.16;;;19.43;70.42
3444;BME280;1736;52.068;6.968;2023-07-20T07:41:17;101615.19;;;19.09;70.43
3444;BME280;1736;52.068;6.968;2023-07-20T07:43:43;101607.22;;;18.66;72.48
3444;BME280;1736;52.068;6.968;2023-07-20T07:46:10;101620.34;;;18.95;72.54
3444;BME280;1736;52.068;6.968;2023-07-20T07:48:38;101614.88;;;19.12;68.59
3444;BME280;1736;52.068;6.968;2023-07-20T07:51:05;101619.75;;;19.34;69.13
3444;BME280;1736;52.068;6.968;2023-07-20T07:53:31;101629.09;;;19.72;68.48
3444;BME280;1736;52.068;6.968;2023-07-20T07:55:58;101632.53;;;19.82;66.74
3444;BME280;1736;52.068;6.968;2023-07-20T07:58:25;101627.88;;;19.58;65.16
3444;BME280;1736;52.068;6.968;2023-07-20T08:00:52;101625.44;;;19.89;66.58
3444;BME280;1736;52.068;6.968;2023-07-20T08:03:18;101627.28;;;19.80;67.11
3444;BME280;1736;52.068;6.968;2023-07-20T08:05:47;101628.00;;;20.07;67.85
3444;BME280;1736;52.068;6.968;2023-07-20T08:08:13;101610.84;;;20.08;63.66
3444;BME280;1736;52.068;6.968;2023-07-20T08:10:40;101613.22;;;20.11;64.94
3444;BME280;1736;52.068;6.968;2023-07-20T08:13:06;101608.84;;;20.10;63.57
3444;BME280;1736;52.068;6.968;2023-07-20T08:15:33;101613.16;;;19.94;64.34
3444;BME280;1736;52.068;6.968;2023-07-20T08:17:59;101608.16;;;20.08;62.69
3444;BME280;1736;52.068;6.968;2023-07-20T08:20:26;101606.94;;;19.94;64.56
3444;BME280;1736;52.068;6.968;2023-07-20T08:22:54;101598.78;;;19.54;63.84
3444;BME280;1736;52.068;6.968;2023-07-20T08:25:21;101595.53;;;19.34;64.13
3444;BME280;1736;52.068;6.968;2023-07-20T08:27:47;101594.72;;;19.16;65.73
3444;BME280;1736;52.068;6.968;2023-07-20T08:30:14;101603.91;;;19.31;67.03
3444;BME280;1736;52.068;6.968;2023-07-20T08:32:40;101594.84;;;19.07;65.65
3444;BME280;1736;52.068;6.968;2023-07-20T08:35:08;101606.81;;;19.46;65.43
3444;BME280;1736;52.068;6.968;2023-07-20T08:37:34;101600.28;;;19.48;63.61
3444;BME280;1736;52.068;6.968;2023-07-20T08:40:03;101613.88;;;20.05;64.87
3444;BME280;1736;52.068;6.968;2023-07-20T08:42:33;101603.59;;;20.08;62.82
3444;BME280;1736;52.068;6.968;2023-07-20T08:45:03;101608.34;;;20.46;62.72
3444;BME280;1736;52.068;6.968;2023-07-20T08:47:33;101609.19;;;20.47;59.27
3444;BME280;1736;52.068;6.968;2023-07-20T08:50:05;101620.25;;;20.92;59.70
3444;BME280;1736;52.068;6.968;2023-07-20T08:52:34;101622.56;;;21.11;59.31
3444;BME280;1736;52.068;6.968;2023-07-20T08:55:03;101609.13;;;20.95;58.88
3444;BME280;1736;52.068;6.968;2023-07-20T08:57:32;101614.88;;;20.76;60.35
3444;BME280;1736;52.068;6.968;2023-07-20T09:00:00;101608.25;;;20.86;56.45
3444;BME280;1736;52.068;6.968;2023-07-20T09:02:31;101608.28;;;20.78;56.79
3444;BME280;1736;52.068;6.968;2023-07-20T09:05:00;101581.19;;;20.40;58.13
3444;BME280;1736;52.068;6.968;2023-07-20T09:07:27;101596.88;;;20.44;60.20
3444;BME280;1736;52.068;6.968;2023-07-20T09:09:57;101583.22;;;20.06;57.68
3444;BME280;1736;52.068;6.968;2023-07-20T09:12:25;101575.63;;;19.77;60.06
3444;BME280;1736;52.068;6.968;2023-07-20T09:14:52;101580.00;;;19.94;59.55
3444;BME280;1736;52.068;6.968;2023-07-20T09:17:18;101588.13;;;20.26;60.19
3444;BME280;1736;52.068;6.968;2023-07-20T09:19:46;101582.56;;;20.20;57.47
3444;BME280;1736;52.068;6.968;2023-07-20T09:22:13;101579.19;;;20.42;59.17
3444;BME280;1736;52.068;6.968;2023-07-20T09:24:40;101585.94;;;20.38;59.22
3444;BME280;1736;52.068;6.968;2023-07-20T09:27:08;101594.31;;;20.67;56.61
3444;BME280;1736;52.068;6.968;2023-07-20T09:29:47;101576.66;;;20.40;53.76
3444;BME280;1736;52.068;6.968;2023-07-20T09:32:18;101573.81;;;20.26;56.73
3444;BME280;1736;52.068;6.968;2023-07-20T09:34:45;101572.13;;;20.33;55.49
3444;BME280;1736;52.068;6.968;2023-07-20T09:37:11;101570.44;;;20.24;54.27
3444;BME280;1736;52.068;6.968;2023-07-20T09:39:43;101565.56;;;20.11;51.82
3444;BME280;1736;52.068;6.968;2023-07-20T09:42:11;101568.25;;;20.35;52.31
3444;BME280;1736;52.068;6.968;2023-07-20T09:44:39;101574.13;;;20.47;54.59
3444;BME280;1736;52.068;6.968;2023-07-20T09:47:07;101563.00;;;20.42;54.01
3444;BME280;1736;52.068;6.968;2023-07-20T09:49:39;101559.97;;;20.45;52.22
3444;BME280;1736;52.068;6.968;2023-07-20T09:52:06;101569.56;;;20.63;49.94
3444;BME280;1736;52.068;6.968;2023-07-20T09:54:33;101566.16;;;20.61;51.65
3444;BME280;1736;52.068;6.968;2023-07-20T09:57:01;101568.97;;;21.00;54.15
3444;BME280;1736;52.068;6.968;2023-07-20T09:59:29;101567.47;;;20.97;53.68
3444;BME280;1736;52.068;6.968;2023-07-20T10:01:58;101562.97;;;20.74;56.10
3444;BME280;1736;52.068;6.968;2023-07-20T10:04:25;101552.00;;;20.75;55.56
3444;BME280;1736;52.068;6.968;2023-07-20T10:06:54;101556.56;;;20.59;55.57
3444;BME280;1736;52.068;6.968;2023-07-20T10:09:22;101549.53;;;20.50;56.88
3444;BME280;1736;52.068;6.968;2023-07-20T10:11:51;101549.13;;;20.77;56.22
3444;BME280;1736;52.068;6.968;2023-07-20T10:14:20;101618.41;;;21.00;56.15
3444;BME280;1736;52.068;6.968;2023-07-20T10:16:50;101612.09;;;21.16;57.65
3444;BME280;1736;52.068;6.968;2023-07-20T10:19:23;101590.13;;;21.27;54.78
3444;BME280;1736;52.068;6.968;2023-07-20T10:21:54;101579.94;;;21.37;51.61
3444;BME280;1736;52.068;6.968;2023-07-20T10:24:23;101580.50;;;21.63;53.34
3444;BME280;1736;52.068;6.968;2023-07-20T10:26:50;101582.63;;;21.75;52.62
3444;BME280;1736;52.068;6.968;2023-07-20T10:29:17;101576.41;;;21.97;52.29
3444;BME280;1736;52.068;6.968;2023-07-20T10:31:44;101570.56;;;21.86;51.50
3444;BME280;1736;52.068;6.968;2023-07-20T10:34:11;101555.31;;;21.62;51.86
3444;BME280;1736;52.068;6.968;2023-07-20T10:36:45;101562.53;;;21.70;51.48
3444;BME280;1736;52.068;6.968;2023-07-20T10:39:23;101568.94;;;21.77;51.23
3444;BME280;1736;52.068;6.968;2023-07-20T10:41:59;101563.66;;;22.06;50.92
3444;BME280;1736;52.068;6.968;2023-07-20T10:44:27;101556.50;;;22.13;49.80
3444;BME280;1736;52.068;6.968;2023-07-20T10:46:59;101558.91;;;22.45;50.32
3444;BME280;1736;52.068;6.968;2023-07-20T10:49:27;101566.72;;;22.77;49.37
3444;BME280;1736;52.068;6.968;2023-07-20T10:51:59;101562.13;;;22.92;48.85
3444;BME280;1736;52.068;6.968;2023-07-20T10:54:47;101548.78;;;22.76;49.72
3444;BME280;1736;52.068;6.968;2023-07-20T10:57:22;101535.72;;;22.50;47.77
3444;BME280;1736;52.068;6.968;2023-07-20T10:59:49;101528.78;;;22.33;49.70
3444;BME280;1736;52.068;6.968;2023-07-20T11:02:18;101519.47;;;21.99;48.61
3444;BME280;1736;52.068;6.968;2023-07-20T11:04:46;101520.41;;;22.06;50.07
3444;BME280;1736;52.068;6.968;2023-07-20T11:07:17;101525.16;;;22.41;48.61
3444;BME280;1736;52.068;6.968;2023-07-20T11:09:43;101521.94;;;22.23;47.04
3444;BME280;1736;52.068;6.968;2023-07-20T11:12:11;101536.03;;;22.33;44.94
3444;BME280;1736;52.068;6.968;2023-07-20T11:14:40;101520.91;;;22.09;44.72
3444;BME280;1736;52.068;6.968;2023-07-20T11:17:14;101515.59;;;22.16;45.28
3444;BME280;1736;52.068;6.968;2023-07-20T11:19:47;101533.69;;;22.30;46.45
3444;BME280;1736;52.068;6.968;2023-07-20T11:22:17;101510.31;;;22.00;44.50
3444;BME280;1736;52.068;6.968;2023-07-20T11:24:44;101518.94;;;22.18;45.39
3444;BME280;1736;52.068;6.968;2023-07-20T11:27:10;101509.72;;;22.27;43.78
3444;BME280;1736;52.068;6.968;2023-07-20T11:29:37;101512.50;;;22.56;46.03
3444;BME280;1736;52.068;6.968;2023-07-20T11:32:04;101513.25;;;22.64;45.05
3444;BME280;1736;52.068;6.968;2023-07-20T11:34:31;101505.13;;;22.64;44.75
3444;BME280;1736;52.068;6.968;2023-07-20T11:36:58;101504.31;;;22.64;45.41
3444;BME280;1736;52.068;6.968;2023-07-20T11:39:27;101511.91;;;23.04;43.55
3444;BME280;1736;52.068;6.968;2023-07-20T11:41:56;101497.00;;;22.79;44.15
3444;BME280;1736;52.068;6.968;2023-07-20T11:44:24;101498.66;;;23.09;44.44
3444;BME280;1736;52.068;6.968;2023-07-20T11:46:59;101486.09;;;22.58;40.94
3444;BME280;1736;52.068;6.968;2023-07-20T11:49:28;101486.09;;;22.58;40.87
3444;BME280;1736;52.068;6.968;2023-07-20T11:51:55;101477.91;;;22.66;43.35
3444;BME280;1736;52.068;6.968;2023-07-20T11:54:23;101484.88;;;22.75;43.19
3444;BME280;1736;52.068;6.968;2023-07-20T11:56:54;101484.16;;;22.81;40.32
3444;BME280;1736;52.068;6.968;2023-07-20T11:59:22;101471.09;;;22.70;42.97
3444;BME280;1736;52.068;6.968;2023-07-20T12:01:49;101467.53;;;22.55;41.15
3444;BME280;1736;52.068;6.968;2023-07-20T12:04:15;101451.94;;;22.42;43.59
3444;BME280;1736;52.068;6.968;2023-07-20T12:06:42;101099.69;;;22.61;42.05
3444;BME280;1736;52.068;6.968;2023-07-20T12:09:14;101744.06;;;22.87;45.38
3444;BME280;1736;52.068;6.968;2023-07-20T12:11:42;101679.47;;;22.99;44.46
3444;BME280;1736;52.068;6.968;2023-07-20T12:14:11;101601.25;;;23.04;43.02
3444;BME280;1736;52.068;6.968;2023-07-20T12:16:38;101578.50;;;23.27;42.50
3444;BME280;1736;52.068;6.968;2023-07-20T12:19:05;101538.25;;;22.95;43.22
3444;BME280;1736;52.068;6.968;2023-07-20T12:21:34;101531.16;;;23.23;43.18
3444;BME280;1736;52.068;6.968;2023-07-20T12:24:01;101523.41;;;23.20;39.64
3444;BME280;1736;52.068;6.968;2023-07-20T12:26:29;101518.75;;;23.29;40.03
3444;BME280;1736;52.068;6.968;2023-07-20T12:28:56;101512.28;;;23.15;39.76
3444;BME280;1736;52.068;6.968;2023-07-20T12:31:24;101502.47;;;23.14;39.75
3444;BME280;1736;52.068;6.968;2023-07-20T12:33:51;101490.47;;;22.88;39.47
3444;BME280;1736;52.068;6.968;2023-07-20T12:36:19;101504.19;;;23.01;38.88
3444;BME280;1736;52.068;6.968;2023-07-20T12:38:45;101489.50;;;23.10;41.46
3444;BME280;1736;52.068;6.968;2023-07-20T12:41:13;101483.66;;;23.06;38.91
3444;BME280;1736;52.068;6.968;2023-07-20T12:43:40;101478.13;;;23.00;41.73
3444;BME280;1736;52.068;6.968;2023-07-20T12:46:06;101480.69;;;23.37;42.25
3444;BME280;1736;52.068;6.968;2023-07-20T12:48:36;101467.72;;;23.32;41.50
3444;BME280;1736;52.068;6.968;2023-07-20T12:51:03;101458.63;;;23.40;41.57
3444;BME280;1736;52.068;6.968;2023-07-20T12:53:30;101470.13;;;23.63;42.10
3444;BME280;1736;52.068;6.968;2023-07-20T12:55:57;101463.59;;;23.36;40.55
3444;BME280;1736;52.068;6.968;2023-07-20T12:58:24;101469.34;;;23.48;39.06
3444;BME280;1736;52.068;6.968;2023-07-20T13:00:51;101462.31;;;23.32;38.52
3444;BME280;1736;52.068;6.968;2023-07-20T13:03:18;101450.16;;;22.93;39.56
3444;BME280;1736;52.068;6.968;2023-07-20T13:05:46;101436.00;;;23.12;38.55
3444;BME280;1736;52.068;6.968;2023-07-20T13:08:13;101438.78;;;23.18;39.13
3444;BME280;1736;52.068;6.968;2023-07-20T13:10:39;101436.75;;;23.20;39.55
3444;BME280;1736;52.068;6.968;2023-07-20T13:13:06;101438.63;;;23.41;39.27
3444;BME280;1736;52.068;6.968;2023-07-20T13:15:41;101438.50;;;23.49;39.07
3444;BME280;1736;52.068;6.968;2023-07-20T13:18:07;101420.16;;;23.09;39.34